Latest Weather Observations for Tewantin

IDQ60801

Issued at 3:42 pm EST Thursday 21 February 2019 (issued every 10 minutes, with the page automatically refreshed every 10 minutes)

About weather observations | Map of weather stations | Latest weather observations for QLD | Other Formats
Station Details ID: 040908 Name: TEWANTIN RSL PARK Lat: -26.39 Lon: 153.04 Height: 6.4 m
Data from the previous 72 hours. | See also: Recent months at Tewantin
Date/Time
EST
Temp
°C
App
Temp
°C
Dew
Point
°C
Rel
Hum
%
Delta-T
°C
Wind Press
QNH
hPa
Press
MSL
hPa
Rain since
9am
mm
Dir  Spd
km/h
Gust
km/h
Spd
kts
Gust
kts
21/03:30pm 29.2 28.8 20.9 61 5.5 SSE 24 39 13 21 1005.5 1005.5 0.2
21/03:03pm 29.1 27.7 20.5 59 5.7 SSE 28 50 15 27 1005.6 1005.6 0.2
21/03:00pm 29.2 28.4 20.9 61 5.5 SSE 26 41 14 22 1005.6 1005.6 0.2
21/02:30pm 29.1 28.4 21.1 62 5.3 SSE 26 41 14 22 1006.1 1006.1 0.2
21/02:00pm 28.3 29.3 22.8 72 3.7 SSE 22 39 12 21 1006.5 1006.5 0.2
21/01:30pm 29.1 30.5 22.6 68 4.4 SSE 19 32 10 17 1006.7 1006.7 0.2
21/01:00pm 28.9 29.9 21.7 65 4.8 SSE 19 33 10 18 1007.1 1007.1 0.2
21/12:30pm 27.6 27.8 22.1 72 3.7 SSE 24 37 13 20 1007.4 1007.4 0.2
21/12:00pm 29.3 30.0 22.3 66 4.8 SSE 22 43 12 23 1007.4 1007.4 0.2
21/11:30am 29.1 29.4 21.6 64 5.0 SSE 22 46 12 25 1007.5 1007.5 0.2
21/11:00am 29.5 30.9 22.5 66 4.8 SSE 19 33 10 18 1007.7 1007.7 0.2
21/10:30am 29.0 30.8 23.2 71 4.0 SE 19 30 10 16 1007.8 1007.8 0.2
21/10:00am 28.8 29.4 22.1 67 4.5 SE 22 41 12 22 1007.8 1007.8 0.2
21/09:30am 29.4 30.7 22.4 66 4.7 SSE 19 37 10 20 1007.5 1007.5 0.2
21/09:00am 28.7 31.4 23.4 73 3.6 SE 15 28 8 15 1007.4 1007.4 1.2
21/08:30am 27.8 29.0 22.5 73 3.6 S 20 39 11 21 1007.2 1007.2 1.2
21/08:00am 27.9 29.5 22.2 71 3.8 SSE 17 30 9 16 1007.0 1007.0 1.2
21/07:30am 27.4 29.9 23.2 78 2.9 S 15 28 8 15 1006.6 1006.6 1.2
21/07:00am 26.9 29.7 23.6 82 2.3 SSE 15 24 8 13 1006.5 1006.5 1.2
21/06:30am 25.9 29.2 23.9 89 1.4 SSE 13 20 7 11 1006.4 1006.4 1.2
21/06:00am 25.3 29.3 24.4 95 0.6 S 11 17 6 9 1006.1 1006.1 1.2
21/05:30am 25.1 29.2 24.6 97 0.3 S 11 15 6 8 1005.9 1005.9 1.2
21/05:00am 24.8 29.0 24.1 96 0.5 SSW 9 13 5 7 1005.5 1005.5 1.2
21/04:30am 25.3 29.7 24.4 95 0.6 SSE 9 17 5 9 1005.2 1005.2 1.2
21/04:00am 25.2 28.8 24.3 95 0.6 S 13 20 7 11 1005.3 1005.3 1.2
21/03:30am 25.5 29.6 24.5 94 0.7 S 11 20 6 11 1005.4 1005.4 1.2
21/03:00am 25.4 29.1 24.5 95 0.6 SSE 13 22 7 12 1005.5 1005.5 1.2
21/02:30am 25.3 29.0 24.6 96 0.5 SSE 13 24 7 13 1005.9 1005.9 1.2
21/02:00am 24.9 28.6 24.6 98 0.2 SSE 13 19 7 10 1006.2 1006.2 1.2
21/01:30am 24.9 29.1 24.7 99 0.1 SSE 11 17 6 9 1006.6 1006.6 1.2
21/01:00am 25.2 29.6 24.5 96 0.5 SSE 9 22 5 12 1006.9 1006.9 0.2
21/12:30am 26.2 29.7 24.2 89 1.4 SSE 13 19 7 10 1007.1 1007.1 0.0
21/12:00am 26.2 29.7 24.2 89 1.4 SSE 13 20 7 11 1007.0 1007.0 0.0
 
Date/Time
EST
Temp
°C
App
Temp
°C
Dew
Point
°C
Rel
Hum
%
Delta-T
°C
Wind Press
QNH
hPa
Press
MSL
hPa
Rain since
9am
mm
Dir  Spd
km/h
Gust
km/h
Spd
kts
Gust
kts
20/11:30pm 26.4 30.2 24.1 87 1.6 SSE 11 22 6 12 1007.2 1007.2 0.0
20/11:00pm 26.2 30.7 24.6 91 1.1 SSE 9 15 5 8 1007.2 1007.2 0.0
20/10:30pm 26.3 30.4 24.5 90 1.2 SE 11 19 6 10 1007.0 1007.0 0.0
20/10:00pm 26.1 30.0 24.3 90 1.2 SE 11 19 6 10 1006.9 1006.9 0.0
20/09:30pm 25.8 30.3 24.0 90 1.2 SSE 7 13 4 7 1007.0 1007.0 0.0
20/09:00pm 25.9 30.0 23.9 89 1.4 SSE 9 15 5 8 1007.0 1007.0 0.0
20/08:30pm 26.1 30.1 23.8 87 1.6 SSE 9 13 5 7 1006.8 1006.8 0.0
20/08:00pm 26.2 30.2 23.7 86 1.7 SE 9 15 5 8 1006.7 1006.7 0.0
20/07:30pm 26.2 30.0 23.5 85 1.8 SE 9 15 5 8 1006.5 1006.5 0.0
20/07:00pm 26.2 29.6 23.3 84 2.0 SE 11 19 6 10 1006.3 1006.3 0.0
20/06:30pm 26.3 29.1 23.0 82 2.2 SE 13 20 7 11 1006.1 1006.1 0.0
20/06:00pm 26.7 29.1 23.0 80 2.5 SE 15 26 8 14 1006.0 1006.0 0.0
20/05:30pm 26.9 28.6 22.3 76 3.1 SE 17 28 9 15 1005.8 1005.8 0.0
20/05:00pm 27.1 28.5 22.5 76 3.1 SE 19 28 10 15 1005.5 1005.5 0.0
20/04:30pm 27.4 28.5 22.4 74 3.4 ESE 20 32 11 17 1005.5 1005.5 0.0
20/04:00pm 28.2 29.0 20.7 63 5.0 SE 17 28 9 15 1005.3 1005.3 0.0
20/03:30pm 28.7 29.9 21.5 65 4.8 SE 17 28 9 15 1005.3 1005.3 0.0
20/03:00pm 28.7 29.8 21.2 64 5.0 ESE 17 30 9 16 1005.3 1005.3 0.0
20/02:30pm 28.4 28.6 20.2 61 5.4 SE 19 33 10 18 1005.5 1005.5 0.0
20/02:00pm 29.0 29.6 21.0 62 5.3 SE 19 26 10 14 1005.9 1005.9 0.0
20/01:30pm 29.3 30.7 21.8 64 5.0 SE 17 30 9 16 1006.5 1006.5 0.0
20/01:00pm 29.4 30.2 21.4 62 5.4 SE 19 28 10 15 1007.1 1007.1 0.0
20/12:30pm 28.8 29.0 20.5 61 5.5 ESE 20 28 11 15 1007.3 1007.3 0.0
20/12:00pm 28.5 29.3 21.3 65 4.8 SE 19 30 10 16 1007.8 1007.8 0.0
20/11:30am 29.2 30.3 21.2 62 5.3 SE 17 30 9 16 1008.1 1008.1 0.0
20/11:00am 28.8 29.7 20.8 62 5.3 SE 17 28 9 15 1008.4 1008.4 0.0
20/10:30am 28.5 29.6 20.5 62 5.3 SSE 15 26 8 14 1008.8 1008.8 0.0
20/10:00am 28.8 30.5 21.6 65 4.8 SE 15 28 8 15 1008.9 1008.9 0.0
20/09:30am 28.3 29.8 21.3 65 4.7 SSE 15 24 8 13 1008.8 1008.8 0.0
20/09:00am 28.1 29.5 21.1 65 4.7 SSE 15 24 8 13 1008.7 1008.7 0.0
20/08:30am 27.1 28.4 20.9 69 4.1 SE 15 24 8 13 1008.6 1008.6 0.0
20/08:00am 27.1 29.8 22.1 74 3.4 SSE 11 19 6 10 1008.6 1008.6 0.0
20/07:30am 25.7 29.0 22.6 83 2.1 S 9 17 5 9 1008.3 1008.3 0.0
20/07:00am 24.6 28.1 22.8 90 1.2 S 9 15 5 8 1008.0 1008.0 0.0
20/06:30am 23.4 27.0 23.1 98 0.2 S 9 13 5 7 1007.8 1007.8 0.0
20/06:00am 22.3 25.8 22.1 99 0.1 S 7 11 4 6 1007.5 1007.5 0.0
20/05:30am 22.4 25.5 22.2 99 0.1 SSW 9 11 5 6 1007.1 1007.1 0.0
20/05:00am 22.3 25.4 22.1 99 0.1 S 9 13 5 7 1006.8 1006.8 0.0
20/04:30am 22.2 25.3 22.2 100 0.0 S 9 13 5 7 1006.6 1006.6 0.0
20/04:00am 22.0 25.4 22.0 100 0.0 S 7 11 4 6 1006.3 1006.3 0.0
20/03:30am 22.0 25.3 21.8 99 0.1 S 7 9 4 5 1006.1 1006.1 0.0
20/03:00am 22.3 25.8 22.1 99 0.1 S 7 9 4 5 1006.1 1006.1 0.0
20/02:30am 22.3 27.1 22.1 99 0.1 CALM 0 0 0 0 1006.1 1006.1 0.0
20/02:00am 22.4 27.2 22.2 99 0.1 CALM 0 0 0 0 1006.2 1006.2 0.0
20/01:30am 22.3 26.9 21.8 97 0.3 CALM 0 0 0 0 1006.4 1006.4 0.0
20/01:00am 22.8 27.4 22.5 98 0.2 SSW 2 7 1 4 1006.7 1006.7 0.0
20/12:30am 22.8 27.6 22.1 96 0.5 CALM 0 0 0 0 1007.0 1007.0 0.0
20/12:00am 23.1 27.2 22.3 95 0.5 SW 4 7 2 4 1007.3 1007.3 0.0
 
Date/Time
EST
Temp
°C
App
Temp
°C
Dew
Point
°C
Rel
Hum
%
Delta-T
°C
Wind Press
QNH
hPa
Press
MSL
hPa
Rain since
9am
mm
Dir  Spd
km/h
Gust
km/h
Spd
kts
Gust
kts
19/11:30pm 23.3 27.9 22.5 95 0.5 SW 2 7 1 4 1007.6 1007.6 0.0
19/11:00pm 23.6 27.4 22.4 93 0.8 SW 6 9 3 5 1008.0 1008.0 0.0
19/10:30pm 23.7 27.3 22.3 92 0.9 SW 7 9 4 5 1008.0 1008.0 0.0
19/10:00pm 24.1 29.0 22.4 90 1.1 CALM 0 6 0 3 1008.1 1008.1 0.0
19/09:30pm 24.3 29.1 22.2 88 1.4 CALM 0 0 0 0 1008.0 1008.0 0.0
19/09:00pm 24.8 29.8 22.5 87 1.5 CALM 0 0 0 0 1007.9 1007.9 0.0
19/08:30pm 24.9 29.0 22.2 85 1.8 E 4 7 2 4 1007.8 1007.8 0.0
19/08:00pm 25.1 29.2 22.2 84 1.9 E 4 7 2 4 1007.5 1007.5 0.0
19/07:30pm 25.3 28.7 22.0 82 2.2 E 7 11 4 6 1007.1 1007.1 0.0
19/07:00pm 25.6 28.6 21.9 80 2.5 E 9 15 5 8 1007.1 1007.1 0.0
19/06:30pm 26.0 29.2 21.7 77 2.9 ENE 7 11 4 6 1006.8 1006.8 0.0
19/06:00pm 26.3 28.7 21.5 75 3.2 ESE 11 17 6 9 1006.5 1006.5 0.0
19/05:30pm 26.7 28.1 21.0 71 3.8 E 15 20 8 11 1006.2 1006.2 0.0
19/05:00pm 27.3 28.8 20.6 67 4.4 E 13 20 7 11 1005.9 1005.9 0.0
19/04:30pm 27.6 29.2 20.7 66 4.6 E 13 19 7 10 1005.7 1005.7 0.0
19/04:00pm 28.0 29.2 20.0 61 5.2 E 13 24 7 13 1005.6 1005.6 0.0
19/03:30pm 28.5 29.4 20.0 60 5.6 E 15 19 8 10 1005.4 1005.4 0.0
19/03:00pm 28.8 29.4 19.4 56 6.1 ESE 15 20 8 11 1005.4 1005.4 0.0
19/02:30pm 29.0 30.2 20.7 61 5.5 E 15 20 8 11 1005.6 1005.6 0.0
19/02:00pm 28.8 29.8 20.3 60 5.6 ESE 15 20 8 11 1005.9 1005.9 0.0
19/01:30pm 29.3 30.7 21.0 61 5.5 E 15 24 8 13 1006.3 1006.3 0.0
19/01:00pm 28.9 30.3 20.4 60 5.6 E 13 20 7 11 1006.8 1006.8 0.0
19/12:30pm 29.0 30.0 20.2 59 5.8 E 15 22 8 12 1007.2 1007.2 0.0
19/12:00pm 28.7 29.4 19.6 58 5.9 E 15 20 8 11 1007.7 1007.7 0.0
19/11:30am 28.7 30.1 21.0 63 5.1 E 15 20 8 11 1008.1 1008.1 0.0
19/11:00am 28.4 29.5 19.6 59 5.7 ESE 13 20 7 11 1008.5 1008.5 0.0
19/10:30am 28.1 29.5 19.6 60 5.5 ESE 11 17 6 9 1008.8 1008.8 0.0
19/10:00am 28.2 29.5 20.2 62 5.3 E 13 19 7 10 1008.9 1008.9 0.0
19/09:30am 28.3 30.1 21.1 65 4.8 ESE 13 20 7 11 1009.2 1009.2 0.0
19/09:00am 27.8 30.1 20.6 65 4.8 SE 9 17 5 9 1009.2 1009.2 0.0
19/08:30am 27.3 29.5 20.4 66 4.5 SE 9 17 5 9 1009.3 1009.3 0.0
19/08:00am 26.5 27.7 19.9 67 4.3 S 13 19 7 10 1009.1 1009.1 0.0
19/07:30am 25.3 26.9 19.9 72 3.5 S 11 20 6 11 1009.1 1009.1 0.0
19/07:00am 24.4 26.5 20.1 77 2.8 S 9 15 5 8 1009.0 1009.0 0.0
19/06:30am 23.1 25.2 20.1 83 1.9 S 9 13 5 7 1008.8 1008.8 0.0
19/06:00am 22.0 24.6 20.5 91 1.0 SSW 7 13 4 7 1008.4 1008.4 0.0
19/05:30am 21.7 23.8 20.2 91 1.0 S 9 13 5 7 1008.3 1008.3 0.0
19/05:00am 21.7 23.9 19.6 88 1.3 SSW 7 13 4 7 1008.2 1008.2 0.0
19/04:30am 21.8 24.0 19.5 87 1.5 S 7 11 4 6 1008.3 1008.3 0.0
19/04:00am 22.0 24.1 19.4 85 1.7 S 7 9 4 5 1008.3 1008.3 0.0
19/03:30am 22.2 24.3 19.4 84 1.8 SSW 7 13 4 7 1008.3 1008.3 0.0
19/03:00am 22.3 24.4 19.3 83 1.9 SSW 7 11 4 6 1008.5 1008.5 0.0
19/02:30am 22.5 24.7 19.5 83 1.9 SSW 7 11 4 6 1008.6 1008.6 0.0
19/02:00am 22.1 24.2 19.3 84 1.8 SSW 7 13 4 7 1008.8 1008.8 0.0
19/01:30am 22.4 24.5 19.4 83 1.9 S 7 11 4 6 1008.9 1008.9 0.0
19/01:00am 21.9 24.3 18.7 82 2.0 SW 4 7 2 4 1009.2 1009.2 0.0
19/12:30am 22.6 25.0 19.6 83 1.9 SSW 6 11 3 6 1009.7 1009.7 0.0
19/12:00am 22.7 24.8 19.3 81 2.2 SSW 7 11 4 6 1010.1 1010.1 0.0
 
Date/Time
EST
Temp
°C
App
Temp
°C
Dew
Point
°C
Rel
Hum
%
Delta-T
°C
Wind Press
QNH
hPa
Press
MSL
hPa
Rain since
9am
mm
Dir  Spd
km/h
Gust
km/h
Spd
kts
Gust
kts
18/11:30pm 22.4 24.3 19.0 81 2.2 WSW 7 9 4 5 1010.5 1010.5 0.0
18/11:00pm 22.7 24.9 19.3 81 2.2 SW 6 7 3 4 1010.8 1010.8 0.0
18/10:30pm 22.9 25.0 18.9 78 2.5 SW 6 7 3 4 1010.9 1010.9 0.0
18/10:00pm 23.1 25.1 18.8 77 2.7 SW 6 7 3 4 1011.0 1011.0 0.0
18/09:30pm 23.7 25.7 18.8 74 3.1 SW 6 7 3 4 1011.1 1011.1 0.0
18/09:00pm 24.9 26.6 18.6 68 4.0 SSE 7 13 4 7 1011.0 1011.0 0.0
18/08:30pm 24.9 26.6 18.6 68 4.0 SSE 7 11 4 6 1010.8 1010.8 0.0
18/08:00pm 25.1 26.6 18.1 65 4.4 SE 7 9 4 5 1010.6 1010.6 0.0
18/07:30pm 25.3 26.8 18.0 64 4.6 ESE 7 13 4 7 1010.3 1010.3 0.0
18/07:00pm 25.3 26.6 18.5 66 4.3 ESE 9 17 5 9 1009.9 1009.9 0.0
18/06:30pm 25.7 26.0 17.9 62 4.9 ESE 13 20 7 11 1009.7 1009.7 0.0
18/06:00pm 26.0 26.5 18.4 63 4.8 ESE 13 20 7 11 1009.4 1009.4 0.0
18/05:30pm 26.6 26.5 17.9 59 5.5 ESE 15 24 8 13 1009.0 1009.0 0.0
18/05:00pm 26.7 26.9 18.6 61 5.2 ESE 15 26 8 14 1008.9 1008.9 0.0
18/04:30pm 26.8 26.2 17.6 57 5.8 ESE 17 28 9 15 1008.8 1008.8 0.0
18/04:00pm 27.1 26.9 18.4 59 5.6 ESE 17 26 9 14 1008.8 1008.8 0.0

Other formats

Comma delimited format used in spreadsheet applications
http://www.bom.gov.au/fwo/IDQ60801/IDQ60801.94570.axf

JavaScript Object Notation format (JSON) in row-major order
http://www.bom.gov.au/fwo/IDQ60801/IDQ60801.94570.json

Data quality

Most of these data are generated automatically and are frequently updated. Quality checks on data are not normally performed. It is possible for incorrect values to appear. Refer to information at About Latest Weather Observations and please check the disclaimer before using these data.